• Join FlightAware (Why Join?)
  • Login
  • US Flag 
11:18AM EST


 

Airport Tracker/Info


-or-


 

Live Flight TrackerFlight Track Log ✈ LOT9787 ✈ 29-Jul-2013 ✈ KPAE - EPWA / WAW

Flight Track Log - Related Links

Times and Time Zones

All times are in EDT time to prevent confusion due to time zone crossing. See the LOT9787 flight status page for this flight to view local times or setup timezone preferences in your user account.

Time Position Orientation Groundspeed Altitude Reporting Facility
EDT Latitude Longitude Course Direction KTS MPH feet Rate Location/Type
02:38PM 47.8720 -122.2840 175° South 167 192 2,300  Level FlightAware
02:38PM 47.8530 -122.2800 172° South 203 234 2,800 1,080 Climbing FlightAware
02:39PM 47.8440 -122.2720 149° Southeast 212 244 2,900 420 Climbing FlightAware
02:39PM 47.8420 -122.2690 135° Southeast 214 246 2,900 540 Level FlightAware
02:39PM 47.8390 -122.2600 116° Southeast 216 249 3,000 1,620 Climbing FlightAware
02:39PM 47.8360 -122.2430 105° East 225 259 3,400 600 Climbing FlightAware
02:39PM 47.8350 -122.2090 92° East 225 259 3,400 600 Level FlightAware
02:40PM 47.8719 -122.1790 29° Northeast 258 297 3,900 1,140 Climbing FlightAware ADS-B
02:40PM 47.8864 -122.1630 36° Northeast 258 297 4,100 600 Climbing FlightAware ADS-B
02:40PM 47.9009 -122.1470 36° Northeast 259 298 4,200 600 Climbing FlightAware ADS-B
02:41PM 47.9393 -122.1040 37° Northeast 259 298 4,700 720 Climbing FlightAware ADS-B
02:41PM 47.9549 -122.0880 34° Northeast 268 308 4,900 480 Climbing FlightAware ADS-B
02:42PM 47.9792 -122.0720 24° Northeast 273 314 5,000 600 Climbing FlightAware ADS-B
02:42PM 47.9888 -122.0680 16° North 275 316 5,200 1,980 Climbing FlightAware ADS-B
02:42PM 48.0062 -122.0670 North 279 321 5,700 2,760 Climbing FlightAware ADS-B
02:42PM 48.0270 -122.0680 358° North 284 327 6,600 3,360 Climbing FlightAware ADS-B
02:42PM 48.0486 -122.0690 358° North 290 334 7,500 3,240 Climbing FlightAware ADS-B
02:43PM 48.0690 -122.0710 356° North 297 342 8,300 3,240 Climbing FlightAware ADS-B
02:43PM 48.0910 -122.0740 355° North 300 345 9,200 3,240 Climbing FlightAware ADS-B
02:43PM 48.1327 -122.0790 355° North 309 356 10,800 2,640 Climbing FlightAware ADS-B
02:44PM 48.1438 -122.0800 357° North 319 367 10,900 900 Climbing FlightAware ADS-B
02:44PM 48.1510 -122.0800 360° North 325 374 11,000 1,560 Climbing FlightAware ADS-B
02:44PM 48.1662 -122.0740 15° North 336 387 11,300 1,500 Climbing FlightAware ADS-B
02:44PM 48.1803 -122.0640 25° Northeast 346 398 11,500 1,320 Climbing FlightAware ADS-B
02:44PM 48.1902 -122.0520 39° Northeast 356 410 11,700 1,860 Climbing FlightAware ADS-B
02:45PM 48.2286 -121.9990 43° Northeast 378 435 12,700 2,400 Climbing FlightAware ADS-B
02:45PM 48.2681 -121.9450 42° Northeast 388 447 14,100 2,640 Climbing FlightAware ADS-B
02:46PM 48.3094 -121.8880 43° Northeast 399 459 15,400 2,460 Climbing FlightAware ADS-B
02:46PM 48.3514 -121.8310 42° Northeast 409 471 16,700 2,460 Climbing FlightAware ADS-B
02:47PM 48.3967 -121.7690 42° Northeast 420 483 18,000 2,460 Climbing FlightAware ADS-B
02:47PM 48.4402 -121.7090 42° Northeast 425 489 19,300 2,400 Climbing FlightAware ADS-B
02:48PM 48.4843 -121.6480 43° Northeast 432 497 20,500 2,220 Climbing FlightAware ADS-B
02:48PM 48.5302 -121.5840 43° Northeast 441 507 21,600 2,040 Climbing FlightAware ADS-B
02:49PM 48.5788 -121.5170 42° Northeast 450 518 22,700 1,920 Climbing FlightAware ADS-B
02:49PM 48.6200 -121.4590 43° Northeast 457 526 23,600 2,040 Climbing FlightAware
02:50PM 48.6507 -121.4160 43° Northeast 462 532 24,300 2,160 Climbing FlightAware ADS-B
02:50PM 48.6987 -121.3490 43° Northeast 468 539 25,300 1,740 Climbing FlightAware ADS-B
02:51PM 48.7475 -121.2810 43° Northeast 476 548 26,100 1,560 Climbing FlightAware ADS-B
02:51PM 48.7978 -121.2100 43° Northeast 486 559 26,900 1,440 Climbing FlightAware ADS-B
02:52PM 48.8489 -121.1380 43° Northeast 494 568 27,600 1,380 Climbing FlightAware ADS-B
02:52PM 48.8960 -121.0710 43° Northeast 502 578 28,300 1,440 Climbing FlightAware ADS-B
02:52PM 48.9288 -121.0110 50° Northeast 511 588 28,800 1,200 Climbing FlightAware ADS-B
02:53PM 48.9463 -120.9710 56° Northeast 516 594 29,000 1,200 Climbing FlightAware ADS-B
02:53PM 48.9805 -120.8750 61° Northeast 523 602 29,700 1,260 Climbing FlightAware ADS-B
02:54PM 49.0153 -120.7750 62° Northeast 530 610 30,300 1,200 Climbing FlightAware ADS-B
02:54PM 49.0521 -120.6690 62° Northeast 535 616 31,000 1,080 Climbing FlightAware ADS-B
02:55PM 49.1031 -120.5220 62° Northeast 547 629 31,700 900 Climbing FlightAware ADS-B
02:56PM 49.1500 -120.3850 62° Northeast 555 639 32,300 1,080 Climbing FlightAware
02:56PM 49.1920 -120.2630 62° Northeast 554 638 33,100 1,440 Climbing FlightAware
02:57PM 49.2330 -120.1430 62° Northeast 552 635 34,000 1,440 Climbing FlightAware
02:57PM 49.2720 -120.0280 63° Northeast 551 634 34,800 1,320 Climbing FlightAware
02:58PM 49.3150 -119.9020 62° Northeast 548 631 35,600 1,320 Climbing FlightAware
02:58PM 49.3560 -119.7800 63° Northeast 543 625 36,400 1,620 Climbing FlightAware
02:59PM 49.3930 -119.6680 63° Northeast 532 612 37,500 1,500 Climbing FlightAware
02:59PM 49.4210 -119.5850 63° Northeast 531 611 37,900 840 Climbing FlightAware
03:00PM 49.4730 -119.4270 63° Northeast 532 612 38,500 720 Climbing FlightAware
03:01PM 49.5120 -119.3100 63° Northeast 533 613 38,900 420 Climbing FlightAware
03:01PM 49.5500 -119.1950 63° Northeast 532 612 39,000 60 Climbing FlightAware
03:02PM 49.5850 -119.0880 63° Northeast 531 611 39,000  Level FlightAware
03:03PM 49.6370 -118.9190 65° Northeast 533 613 39,000  Level FlightAware
03:03PM 49.6680 -118.8040 67° East 534 615 39,000  Level FlightAware
03:04PM 49.7020 -118.6810 67° East 535 616 39,000  Level FlightAware
03:04PM 49.7310 -118.5730 67° East 534 615 39,000  Level FlightAware
03:05PM 49.7610 -118.4620 67° East 535 616 39,000  Level FlightAware
03:06PM 49.8020 -118.3090 67° East 534 615 39,000  Level FlightAware
03:06PM 49.8360 -118.1830 67° East 533 613 39,000  Level FlightAware
03:07PM 49.8720 -118.0490 67° East 532 612 39,000  Level FlightAware
03:08PM 49.9020 -117.9380 67° East 532 612 39,000  Level FlightAware
03:08PM 49.9420 -117.7810 68° East 532 612 39,000  Level FlightAware
03:09PM 49.9710 -117.6700 68° East 529 609 39,000  Level FlightAware
03:09PM 50.0020 -117.5490 68° East 529 609 39,000  Level FlightAware
03:10PM 50.0310 -117.4400 67° East 533 613 39,000  Level FlightAware
03:10PM 50.0630 -117.3130 69° East 533 613 39,000  Level FlightAware
03:11PM 50.0950 -117.1880 68° East 533 613 39,000  Level FlightAware
03:12PM 50.1230 -117.0790 68° East 534 615 39,000  Level FlightAware
03:12PM 50.1630 -116.9210 68° East 533 613 39,000  Level FlightAware
03:13PM 50.1940 -116.7970 69° East 533 613 39,000  Level FlightAware
03:13PM 50.2250 -116.6710 69° East 534 615 39,000  Level FlightAware
03:14PM 50.2560 -116.5470 69° East 534 615 39,000  Level FlightAware
03:15PM 50.2880 -116.4200 68° East 534 615 39,000  Level FlightAware
03:15PM 50.3180 -116.2940 70° East 535 616 39,000  Level FlightAware
03:16PM 50.3540 -116.1490 69° East 534 615 39,000  Level FlightAware
03:16PM 50.3840 -116.0240 69° East 533 613 39,000  Level FlightAware
03:17PM 50.4150 -115.8950 69° East 533 613 39,000  Level FlightAware
03:17PM 50.4450 -115.7720 69° East 533 613 39,000  Level FlightAware
03:18PM 50.4760 -115.6420 69° East 530 610 39,000  Level FlightAware
03:19PM 50.5060 -115.5130 70° East 527 606 39,000  Level FlightAware
03:19PM 50.5330 -115.3990 70° East 528 608 39,000  Level FlightAware
03:20PM 50.5530 -115.3160 69° East 528 608 39,000  Level FlightAware
03:20PM 50.5860 -115.1720 70° East 532 612 39,000  Level FlightAware
03:21PM 50.6190 -115.0300 70° East 530 610 39,000  Level FlightAware
03:22PM 50.6530 -114.8820 70° East 532 612 39,000  Level FlightAware
03:22PM 50.6650 -114.8310 70° East 532 612 39,000  Level FlightAware
03:23PM 50.7090 -114.6380 70° East 530 610 39,000  Level FlightAware
03:23PM 50.7380 -114.5070 71° East 529 609 39,000  Level FlightAware
03:24PM 50.7660 -114.3840 70° East 529 609 39,000  Level FlightAware
03:25PM 50.7990 -114.2370 70° East 528 608 39,000  Level FlightAware
03:25PM 50.8270 -114.1100 71° East 525 604 39,000  Level FlightAware
03:26PM 50.8510 -114.0010 71° East 525 604 39,000  Level FlightAware
03:26PM 50.8780 -113.8760 71° East 526 605 39,000  Level FlightAware
03:27PM 50.9070 -113.7450 71° East 527 606 39,000  Level FlightAware
03:27PM 50.9370 -113.6050 71° East 527 606 39,000  Level FlightAware
03:28PM 50.9620 -113.4880 71° East 528 608 39,000  Level FlightAware
03:29PM 50.9890 -113.3630 71° East 530 610 39,000  Level FlightAware
03:29PM 51.0220 -113.2100 71° East 532 612 39,000  Level FlightAware
03:30PM 51.0440 -113.1050 72° East 531 611 39,000  Level FlightAware
03:30PM 51.0720 -112.9720 71° East 531 611 39,000  Level FlightAware
03:31PM 51.0990 -112.8410 72° East 532 612 39,000  Level FlightAware
03:32PM 51.1340 -112.6710 72° East 532 612 39,000  Level FlightAware
03:32PM 51.1560 -112.5630 72° East 535 616 39,000  Level FlightAware
03:33PM 51.1870 -112.4100 72° East 534 615 39,000  Level FlightAware
03:33PM 51.2090 -112.3030 72° East 534 615 39,000  Level FlightAware
03:34PM 51.2400 -112.1480 72° East 534 615 39,000  Level FlightAware
03:35PM 51.2660 -112.0210 72° East 533 613 39,000  Level FlightAware
03:35PM 51.2960 -111.8690 72° East 532 612 39,000  Level FlightAware
03:36PM 51.3210 -111.7390 73° East 531 611 39,000  Level FlightAware
03:36PM 51.3470 -111.6100 72° East 527 606 39,000  Level FlightAware
03:37PM 51.3790 -111.4450 73° East 528 608 39,000  Level FlightAware
03:38PM 51.4000 -111.3340 73° East 529 609 39,000  Level FlightAware
03:38PM 51.4320 -111.1660 73° East 529 609 39,000  Level FlightAware
03:39PM 51.4570 -111.0360 73° East 529 609 39,000  Level FlightAware
03:40PM 51.4800 -110.9130 73° East 528 608 39,000  Level FlightAware
03:40PM 51.5090 -110.7540 74° East 528 608 39,000  Level FlightAware
03:41PM 51.5310 -110.6290 74° East 528 608 39,000  Level FlightAware
03:41PM 51.5620 -110.4710 72° East 532 612 39,000  Level FlightAware
03:42PM 51.5970 -110.2800 73° East 535 616 39,000  Level FlightAware
03:43PM 51.6210 -110.1450 74° East 533 613 39,000  Level FlightAware
03:43PM 51.6450 -110.0120 74° East 532 612 39,000  Level FlightAware
03:44PM 51.6690 -109.8780 74° East 532 612 39,000  Level FlightAware
03:45PM 51.6960 -109.7270 74° East 533 613 39,000  Level FlightAware
03:45PM 51.7190 -109.5930 74° East 534 615 39,000  Level FlightAware
03:46PM 51.7440 -109.4540 74° East 534 615 39,000  Level FlightAware
03:47PM 51.7650 -109.3370 74° East 534 615 39,000  Level FlightAware
03:47PM 51.7850 -109.2190 75° East 534 615 39,000  Level FlightAware
03:48PM 51.8050 -109.1080 74° East 534 615 39,000  Level FlightAware
03:48PM 51.8270 -108.9870 74° East 534 615 39,000  Level FlightAware
03:49PM 51.8480 -108.8670 74° East 534 615 39,000  Level FlightAware
03:50PM 51.8690 -108.7490 74° East 534 615 39,000  Level FlightAware
03:50PM 51.8900 -108.6280 74° East 534 615 39,000  Level FlightAware
03:51PM 51.9100 -108.5170 74° East 534 615 39,000  Level FlightAware
03:51PM 51.9310 -108.3990 74° East 534 615 39,000  Level FlightAware
03:52PM 51.9510 -108.2810 75° East 534 615 39,000  Level FlightAware
03:53PM 51.9720 -108.1630 74° East 534 615 39,000  Level FlightAware
03:53PM 51.9940 -108.0380 74° East 534 615 39,000  Level FlightAware
03:54PM 52.0150 -107.9200 74° East 534 615 39,000  Level FlightAware
03:54PM 52.0360 -107.8020 74° East 534 615 39,000  Level FlightAware
03:55PM 52.0570 -107.6840 74° East 534 615 39,000  Level FlightAware
03:56PM 52.0833 -107.2667 74° East 530 610 39,000  Level Winnipeg Center
03:57PM 52.1333 -107.0167 72° East 530 610 39,000  Level Winnipeg Center
03:58PM 52.1667 -106.8167 75° East 530 610 39,000  Level Winnipeg Center
03:59PM 52.2167 -106.5833 71° East 530 610 39,000  Level Winnipeg Center
04:00PM 52.3000 -106.3667 58° Northeast 530 610 39,000  Level Winnipeg Center
04:01PM 52.3667 -106.1667 61° Northeast 530 610 39,000  Level Winnipeg Center
04:02PM 52.4500 -105.9333 60° Northeast 530 610 39,000  Level Winnipeg Center
04:03PM 52.5167 -105.7333 61° Northeast 530 610 39,000  Level Winnipeg Center
04:04PM 52.5833 -105.5167 63° Northeast 530 610 39,000  Level Winnipeg Center
04:05PM 52.6667 -105.3167 55° Northeast 530 610 39,000  Level Winnipeg Center
04:06PM 52.7333 -105.1000 63° Northeast 530 610 39,000  Level Winnipeg Center
04:07PM 52.8167 -104.9000 55° Northeast 530 610 39,000  Level Winnipeg Center
04:08PM 52.8833 -104.6833 63° Northeast 530 610 39,000  Level Winnipeg Center
04:09PM 52.9500 -104.4500 65° Northeast 530 610 39,000  Level Winnipeg Center
04:10PM 53.0167 -104.2333 63° Northeast 530 610 39,000  Level Winnipeg Center
04:10PM 53.0500 -104.0667 72° East 530 610 39,000  Level Edmonton Center
04:11PM 53.1167 -103.8667 61° Northeast 530 610 39,000  Level Edmonton Center
04:12PM 53.1833 -103.6167 66° East 530 610 39,000  Level Edmonton Center
04:18PM 53.5990 -102.3880 66° East 541 623 39,000  Level FlightAware
04:19PM 53.6430 -102.2420 63° Northeast 541 623 39,000  Level FlightAware
04:19PM 53.6880 -102.0870 64° Northeast 539 620 39,000  Level FlightAware
04:20PM 53.7590 -101.8420 64° Northeast 539 620 39,000  Level FlightAware
04:21PM 53.8260 -101.6160 63° Northeast 538 619 39,000  Level FlightAware
04:22PM 53.8610 -101.4920 64° Northeast 537 618 39,000  Level FlightAware
04:22PM 53.9060 -101.3380 64° Northeast 534 615 39,000  Level FlightAware
04:23PM 53.9390 -101.2200 65° Northeast 534 615 39,000  Level FlightAware
04:24PM 53.9780 -101.1070 60° Northeast 533 613 39,000  Level FlightAware
04:24PM 54.0310 -100.9770 55° Northeast 535 616 39,000  Level FlightAware
04:25PM 54.0820 -100.8550 54° Northeast 533 613 39,000  Level FlightAware
04:25PM 54.1260 -100.7490 55° Northeast 531 611 39,000  Level FlightAware
04:26PM 54.1740 -100.6320 55° Northeast 531 611 39,000  Level FlightAware
04:27PM 54.2667 -100.3167 55° Northeast 520 598 39,000  Level Edmonton Center
04:28PM 54.3667 -100.1333 47° Northeast 520 598 39,000  Level Edmonton Center
04:29PM 54.4667 -99.9500 47° Northeast 520 598 39,000  Level Edmonton Center
04:30PM 54.5833 -99.8167 34° Northeast 520 598 39,000  Level Edmonton Center
04:31PM 54.7000 -99.6500 40° Northeast 520 598 39,000  Level Edmonton Center
04:32PM 54.8167 -99.4833 39° Northeast 520 598 39,000  Level Edmonton Center
04:33PM 54.9167 -99.3500 37° Northeast 520 598 39,000  Level Edmonton Center
04:34PM 55.0500 -99.1833 36° Northeast 520 598 39,000  Level Edmonton Center
04:35PM 55.1500 -99.0000 46° Northeast 520 598 39,000  Level Edmonton Center
04:36PM 55.2167 -98.7833 62° Northeast 520 598 39,000  Level Edmonton Center
04:37PM 55.2833 -98.5500 63° Northeast 520 598 39,000  Level Edmonton Center
04:38PM 55.3667 -98.3000 60° Northeast 520 598 39,000  Level Edmonton Center
04:39PM 55.4333 -98.1167 57° Northeast 520 598 39,000  Level Edmonton Center
04:40PM 55.5500 -97.9167 44° Northeast 520 598 39,000  Level Edmonton Center
04:41PM 55.6500 -97.7500 43° Northeast 520 598 39,000  Level Edmonton Center
04:42PM 55.7667 -97.5667 41° Northeast 520 598 39,000  Level Edmonton Center
04:43PM 55.8667 -97.4000 43° Northeast 520 598 39,000  Level Edmonton Center
04:44PM 55.9833 -97.2167 41° Northeast 510 587 39,000  Level Edmonton Center
04:45PM 56.0833 -97.0500 43° Northeast 510 587 39,000  Level Edmonton Center
04:46PM 56.2000 -96.8667 41° Northeast 510 587 39,000  Level Edmonton Center
04:47PM 56.3000 -96.7333 36° Northeast 510 587 39,000  Level Edmonton Center
04:48PM 56.4167 -96.5500 41° Northeast 510 587 39,000  Level Edmonton Center
04:49PM 56.5167 -96.3667 45° Northeast 510 587 39,000  Level Edmonton Center
04:50PM 56.6167 -96.1833 45° Northeast 510 587 39,000  Level Edmonton Center
04:51PM 56.7333 -96.0000 41° Northeast 510 587 39,000  Level Edmonton Center
04:52PM 56.8333 -95.8167 45° Northeast 510 587 39,000  Level Edmonton Center
04:53PM 56.9333 -95.6333 45° Northeast 510 587 39,000  Level Edmonton Center
04:54PM 57.0333 -95.4667 42° Northeast 510 587 39,000  Level Edmonton Center
04:55PM 57.1500 -95.2667 43° Northeast 510 587 39,000  Level Edmonton Center
04:56PM 57.2333 -95.0833 50° Northeast 510 587 39,000  Level Edmonton Center
04:57PM 57.3667 -94.9000 37° Northeast 510 587 39,000  Level Edmonton Center
04:58PM 57.4500 -94.7167 50° Northeast 510 587 39,000  Level Edmonton Center
04:59PM 57.5500 -94.5500 42° Northeast 510 587 39,000  Level Edmonton Center
05:00PM 57.6500 -94.3333 49° Northeast 510 587 39,000  Level Edmonton Center
05:01PM 57.7667 -94.1667 37° Northeast 510 587 39,000  Level Edmonton Center
05:02PM 57.8667 -93.9833 44° Northeast 510 587 39,000  Level Edmonton Center
05:03PM 57.9667 -93.7833 47° Northeast 510 587 39,000  Level Edmonton Center
05:04PM 58.0667 -93.5833 47° Northeast 500 575 39,000  Level Edmonton Center
05:05PM 58.1500 -93.4000 49° Northeast 500 575 39,000  Level Edmonton Center
05:06PM 58.2667 -93.2000 42° Northeast 500 575 39,000  Level Edmonton Center
05:07PM 58.3833 -93.0333 37° Northeast 500 575 39,000  Level Edmonton Center
05:11PM 58.5629 -92.6632 47° Northeast  Level FlightAware Approximate
05:18PM 59.1984 -91.3030 47° Northeast  Level FlightAware Approximate
05:19PM 59.2880 -91.1046 48° Northeast  Level FlightAware Approximate
05:20PM 59.3773 -90.9051 49° Northeast  Level FlightAware Approximate
05:21PM 59.4664 -90.7046 49° Northeast  Level FlightAware Approximate
05:22PM 59.5550 -90.5030 49° Northeast  Level FlightAware Approximate
05:23PM 59.6434 -90.3003 49° Northeast  Level FlightAware Approximate
05:24PM 59.7315 -90.0966 49° Northeast  Level FlightAware Approximate
05:25PM 59.8192 -89.8918 50° Northeast  Level FlightAware Approximate
05:26PM 59.9067 -89.6859 50° Northeast  Level FlightAware Approximate
05:27PM 59.9938 -89.4790 50° Northeast  Level FlightAware Approximate
05:28PM 60.0806 -89.2709 50° Northeast  Level FlightAware Approximate
05:29PM 60.1670 -89.0618 50° Northeast  Level FlightAware Approximate
05:30PM 60.2531 -88.8515 50° Northeast  Level FlightAware Approximate
05:31PM 60.3389 -88.6402 51° Northeast  Level FlightAware Approximate
05:32PM 60.4244 -88.4277 51° Northeast  Level FlightAware Approximate
05:33PM 60.5095 -88.2141 51° Northeast  Level FlightAware Approximate
05:34PM 60.5942 -87.9995 51° Northeast  Level FlightAware Approximate
05:35PM 60.6787 -87.7836 51° Northeast  Level FlightAware Approximate
05:36PM 60.7627 -87.5667 52° Northeast  Level FlightAware Approximate
05:37PM 60.8465 -87.3486 52° Northeast  Level FlightAware Approximate
05:38PM 60.9298 -87.1293 52° Northeast  Level FlightAware Approximate
05:39PM 61.0128 -86.9089 52° Northeast  Level FlightAware Approximate
05:40PM 61.0955 -86.6874 52° Northeast  Level FlightAware Approximate
05:41PM 61.1778 -86.4647 52° Northeast  Level FlightAware Approximate
05:42PM 61.2597 -86.2408 53° Northeast  Level FlightAware Approximate
05:43PM 61.3412 -86.0157 53° Northeast  Level FlightAware Approximate
05:44PM 61.4224 -85.7895 53° Northeast  Level FlightAware Approximate
05:45PM 61.5032 -85.5621 53° Northeast  Level FlightAware Approximate
05:46PM 61.5836 -85.3336 53° Northeast  Level FlightAware Approximate
05:47PM 61.6636 -85.1038 54° Northeast  Level FlightAware Approximate
05:48PM 61.7433 -84.8729 54° Northeast  Level FlightAware Approximate
05:49PM 61.8225 -84.6407 54° Northeast  Level FlightAware Approximate
05:50PM 61.9014 -84.4074 54° Northeast  Level FlightAware Approximate
05:51PM 61.9799 -84.1729 54° Northeast  Level FlightAware Approximate
05:52PM 62.0579 -83.9371 55° Northeast  Level FlightAware Approximate
05:53PM 62.1356 -83.7002 55° Northeast  Level FlightAware Approximate
05:54PM 62.2128 -83.4620 55° Northeast  Level FlightAware Approximate
05:55PM 62.2897 -83.2226 55° Northeast  Level FlightAware Approximate
05:56PM 62.3661 -82.9820 56° Northeast  Level FlightAware Approximate
05:57PM 62.4421 -82.7402 56° Northeast  Level FlightAware Approximate
05:58PM 62.5177 -82.4971 56° Northeast  Level FlightAware Approximate
05:59PM 62.5929 -82.2528 56° Northeast  Level FlightAware Approximate
06:00PM 62.6676 -82.0073 56° Northeast  Level FlightAware Approximate
06:01PM 62.7422 -81.7609 56° Northeast  Level FlightAware Approximate
06:02PM 62.8167 -81.5136 57° Northeast  Level FlightAware Approximate
06:03PM 62.8906 -81.2651 57° Northeast  Level FlightAware Approximate
06:04PM 62.9642 -81.0154 57° Northeast  Level FlightAware Approximate
06:05PM 63.0373 -80.7644 57° Northeast  Level FlightAware Approximate
06:06PM 63.1099 -80.5121 57° Northeast  Level FlightAware Approximate
06:07PM 63.1821 -80.2586 58° Northeast  Level FlightAware Approximate
06:08PM 63.2539 -80.0038 58° Northeast  Level FlightAware Approximate
06:09PM 63.3252 -79.7478 58° Northeast  Level FlightAware Approximate
06:10PM 63.3960 -79.4905 58° Northeast  Level FlightAware Approximate
06:11PM 63.4664 -79.2319 59° Northeast  Level FlightAware Approximate
06:12PM 63.5363 -78.9720 59° Northeast  Level FlightAware Approximate
06:13PM 63.6057 -78.7109 59° Northeast  Level FlightAware Approximate
06:14PM 63.6746 -78.4485 59° Northeast  Level FlightAware Approximate
06:15PM 63.7431 -78.1848 60° Northeast  Level FlightAware Approximate
06:16PM 63.8111 -77.9199 60° Northeast  Level FlightAware Approximate
06:17PM 63.8786 -77.6536 60° Northeast  Level FlightAware Approximate
06:18PM 63.9456 -77.3861 60° Northeast  Level FlightAware Approximate
06:18PM 64.3333 -76.1500 62° Northeast 510 587 39,000  Level Edmonton Center
06:19PM 64.0121 -77.1173 60° Northeast  Level FlightAware Approximate
06:19PM 64.4000 -75.8500 63° Northeast 510 587 39,000  Level Edmonton Center
06:20PM 64.0781 -76.8473 61° Northeast  Level FlightAware Approximate
06:20PM 64.4500 -75.5500 69° East 510 587 39,000  Level Edmonton Center
06:21PM 64.1436 -76.5760 61° Northeast  Level FlightAware Approximate
06:21PM 64.5167 -75.2500 63° Northeast 510 587 39,000  Level Edmonton Center
06:22PM 64.2086 -76.3033 61° Northeast  Level FlightAware Approximate
06:22PM 64.5833 -74.9167 65° Northeast 520 598 39,000  Level Edmonton Center
06:23PM 64.2731 -76.0294 61° Northeast  Level FlightAware Approximate
06:23PM 64.6500 -74.6333 61° Northeast 520 598 39,000  Level Edmonton Center
06:24PM 64.3371 -75.7542 62° Northeast  Level FlightAware Approximate
06:24PM 64.7000 -74.3500 67° East 510 587 39,000  Level Edmonton Center
06:25PM 64.7500 -74.0167 70° East 520 598 39,000  Level Edmonton Center
06:26PM 64.8167 -73.7167 62° Northeast 520 598 39,000  Level Edmonton Center
06:27PM 64.8667 -73.4333 67° East 520 598 39,000  Level Edmonton Center
06:28PM 64.9167 -73.0833 71° East 520 598 39,000  Level Edmonton Center
06:29PM 64.9833 -72.7833 62° Northeast 520 598 39,000  Level Edmonton Center
06:30PM 65.0333 -72.4500 70° East 530 610 39,000  Level Edmonton Center
06:31PM 65.1000 -72.1333 63° Northeast 530 610 39,000  Level Edmonton Center
06:32PM 65.1500 -71.8000 70° East 520 598 39,000  Level Edmonton Center
06:33PM 65.2167 -71.4833 63° Northeast 530 610 39,000  Level Edmonton Center
06:34PM 65.2667 -71.1667 69° East 530 610 39,000  Level Edmonton Center
06:35PM 65.3000 -70.8500 76° East 530 610 39,000  Level Edmonton Center
06:36PM 65.3667 -70.5333 63° Northeast 520 598 39,000  Level Edmonton Center
06:37PM 65.4167 -70.1667 72° East 520 598 39,000  Level Edmonton Center
06:38PM 65.4667 -69.8667 68° East 520 598 39,000  Level Edmonton Center
06:39PM 65.5167 -69.5167 71° East 520 598 39,000  Level Edmonton Center
06:40PM 65.5333 -69.1500 84° East 530 610 39,000  Level Edmonton Center
06:41PM 65.5500 -68.8333 83° East 520 598 39,000  Level Edmonton Center
06:42PM 65.5833 -68.5000 76° East 520 598 39,000  Level Edmonton Center
06:43PM 65.6000 -68.1333 84° East 520 598 39,000  Level Edmonton Center
06:44PM 65.6333 -67.8000 76° East 530 610 39,000  Level Edmonton Center
06:45PM 65.6667 -67.4667 76° East 520 598 39,000  Level Edmonton Center
06:46PM 65.6833 -67.1000 84° East 520 598 39,000  Level Edmonton Center
06:47PM 65.7000 -66.7333 84° East 520 598 39,000  Level Edmonton Center
06:48PM 65.7167 -66.4000 83° East 520 598 39,000  Level Edmonton Center
06:49PM 65.7500 -66.0667 76° East 530 610 39,000  Level Edmonton Center
06:50PM 65.7667 -65.7000 84° East 520 598 39,000  Level Edmonton Center
06:51PM 65.7833 -65.3500 83° East 520 598 39,000  Level Edmonton Center
06:52PM 65.8000 -65.0500 82° East 520 598 39,000  Level Edmonton Center
06:54PM 65.8316 -64.6996 77° East  Level FlightAware Approximate
06:55PM 65.8333 -64.2833 77° East 490 564 39,000  Level Edmonton Center
06:56PM 65.8333 -63.9000 90° East 530 610 39,000  Level Edmonton Center
06:57PM 65.8667 -63.5667 76° East 530 610 39,000  Level Edmonton Center
06:58PM 65.8833 -63.1667 84° East 520 598 39,000  Level Edmonton Center
06:59PM 65.9000 -62.8333 83° East 540 621 39,000  Level Edmonton Center
07:00PM 65.9000 -62.5167 90° East 530 610 39,000  Level Edmonton Center
07:02PM 65.9294 -61.8779 83° East  Level FlightAware Approximate
07:09PM 66.0128 -59.5531 86° East  Level FlightAware Approximate
07:10PM 66.0215 -59.2200 86° East  Level FlightAware Approximate
07:11PM 66.0295 -58.8867 86° East  Level FlightAware Approximate
07:12PM 66.0372 -58.5532 87° East  Level FlightAware Approximate
07:13PM 66.0447 -58.2196 87° East  Level FlightAware Approximate
07:14PM 66.0514 -57.8858 87° East  Level FlightAware Approximate
07:15PM 66.0574 -57.5518 87° East  Level FlightAware Approximate
07:16PM 66.0627 -57.2177 88° East  Level FlightAware Approximate
07:17PM 66.0672 -56.8835 88° East  Level FlightAware Approximate
07:18PM 66.0711 -56.5492 88° East  Level FlightAware Approximate
07:18PM 66.0770 -56.1160 89° East 518 596 39,000  Level FlightAware
07:19PM 66.0742 -56.2147 89° East  Level FlightAware Approximate
07:19PM 66.0790 -55.8860 89° East 517 595 39,000  Level FlightAware
07:19PM 66.0790 -55.7440 90° East 518 596 39,000  Level FlightAware
07:20PM 66.0810 -55.5460 88° East 518 596 39,000  Level FlightAware
07:21PM 66.0820 -55.3660 89° East 518 596 39,000  Level FlightAware
07:21PM 66.0810 -55.0620 90° East 520 598 39,000  Level FlightAware
07:22PM 66.0810 -54.8670 90° East 521 600 39,000  Level FlightAware
07:23PM 66.0810 -54.6360 90° East 523 602 39,000  Level FlightAware
07:23PM 66.0800 -54.4470 91° East 524 603 39,000  Level FlightAware
07:24PM 66.0790 -54.2300 91° East 523 602 39,000  Level FlightAware
07:24PM 66.0780 -54.0120 91° East 522 601 39,000  Level FlightAware
07:25PM 66.0770 -53.8180 91° East 520 598 39,000  Level FlightAware
07:25PM 66.0750 -53.6190 91° East 520 598 39,000  Level FlightAware
07:26PM 66.0730 -53.4020 91° East 519 597 39,000  Level FlightAware
07:27PM 66.0700 -53.1870 92° East 517 595 39,000  Level FlightAware
07:27PM 66.0680 -52.9750 91° East 517 595 39,000  Level FlightAware
07:28PM 66.0650 -52.7890 92° East 517 595 39,000  Level FlightAware
07:28PM 66.0620 -52.5730 92° East 517 595 39,000  Level FlightAware
07:29PM 66.0590 -52.3820 92° East 516 594 39,000  Level FlightAware
07:30PM 66.0550 -52.1690 93° East 516 594 39,000  Level FlightAware
07:30PM 66.0510 -51.9620 93° East 519 597 39,000  Level FlightAware
07:31PM 66.0470 -51.7470 93° East 519 597 39,000  Level FlightAware
07:31PM 66.0430 -51.5620 93° East 518 596 39,000  Level FlightAware
07:32PM 66.0380 -51.3530 93° East 514 592 39,000  Level FlightAware
07:32PM 66.0330 -51.1390 93° East 509 586 39,000  Level FlightAware
07:33PM 66.0280 -50.9480 94° East 511 588 39,000  Level FlightAware
07:34PM 66.0230 -50.7450 93° East 510 587 39,000  Level FlightAware
07:34PM 66.0190 -50.5680 93° East 510 587 39,000  Level FlightAware
07:35PM 66.0160 -50.3910 92° East 510 587 39,000  Level FlightAware
07:36PM 66.0120 -50.2080 93° East 510 587 39,000  Level FlightAware
07:36PM 66.0080 -50.0310 93° East 510 587 39,000  Level FlightAware
07:37PM 66.0040 -49.8540 93° East 510 587 39,000  Level FlightAware
07:37PM 66.0000 -49.6760 93° East 510 587 39,000  Level FlightAware
07:38PM 65.9960 -49.4990 93° East 510 587 39,000  Level FlightAware
07:39PM 65.9930 -49.3220 92° East 510 587 39,000  Level FlightAware
07:39PM 65.9890 -49.1450 93° East 510 587 39,000  Level FlightAware
07:40PM 65.9850 -48.9630 93° East 510 587 39,000  Level FlightAware
07:40PM 65.9810 -48.7860 93° East 510 587 39,000  Level FlightAware
07:41PM 65.9770 -48.6080 93° East 510 587 39,000  Level FlightAware
07:42PM 65.9730 -48.3870 92° East 510 587 39,000  Level FlightAware
07:42PM 65.9690 -48.2100 93° East 510 587 39,000  Level FlightAware
07:43PM 65.9650 -48.0330 93° East 510 587 39,000  Level FlightAware
07:45PM 65.9803 -47.5012 86° East  Level FlightAware Approximate
07:46PM 65.9889 -47.1685 86° East  Level FlightAware Approximate
07:47PM 65.9968 -46.8356 87° East  Level FlightAware Approximate
07:48PM 66.0040 -46.5025 87° East  Level FlightAware Approximate
07:49PM 66.0105 -46.1692 87° East  Level FlightAware Approximate
07:50PM 66.0162 -45.8357 87° East  Level FlightAware Approximate
07:51PM 66.0212 -45.5021 88° East  Level FlightAware Approximate
07:52PM 66.0256 -45.1684 88° East  Level FlightAware Approximate
07:53PM 66.0291 -44.8346 88° East  Level FlightAware Approximate
07:54PM 66.0320 -44.5007 89° East  Level FlightAware Approximate
07:55PM 66.0341 -44.1668 89° East  Level FlightAware Approximate
07:56PM 66.0355 -43.8327 89° East  Level FlightAware Approximate
07:57PM 66.0362 -43.4987 90° East  Level FlightAware Approximate
07:58PM 66.0362 -43.1647 90° East  Level FlightAware Approximate
07:59PM 66.0355 -42.8306 90° East  Level FlightAware Approximate
08:00PM 66.0340 -42.4966 90° East  Level FlightAware Approximate
08:01PM 66.0318 -42.1627 91° East  Level FlightAware Approximate
08:02PM 66.0288 -41.8288 91° East  Level FlightAware Approximate
08:03PM 66.0252 -41.4950 91° East  Level FlightAware Approximate
08:04PM 66.0208 -41.1613 92° East  Level FlightAware Approximate
08:05PM 66.0157 -40.8277 92° East  Level FlightAware Approximate
08:06PM 66.0099 -40.4943 92° East  Level FlightAware Approximate
08:07PM 66.0034 -40.1610 93° East  Level FlightAware Approximate
08:08PM 66.0055 -39.8286 85° East  Level FlightAware Approximate
08:09PM 66.0155 -39.4958 86° East  Level FlightAware Approximate
08:10PM 66.0249 -39.1628 86° East  Level FlightAware Approximate
08:11PM 66.0335 -38.8295 86° East  Level FlightAware Approximate
08:12PM 66.0415 -38.4960 86° East  Level FlightAware Approximate
08:13PM 66.0487 -38.1623 87° East  Level FlightAware Approximate
08:14PM 66.0552 -37.8285 87° East  Level FlightAware Approximate
08:15PM 66.0609 -37.4944 87° East  Level FlightAware Approximate
08:16PM 66.0659 -37.1603 88° East  Level FlightAware Approximate
08:17PM 66.0703 -36.8260 88° East  Level FlightAware Approximate
08:18PM 66.0739 -36.4916 88° East  Level FlightAware Approximate
08:19PM 66.0767 -36.1571 89° East  Level FlightAware Approximate
08:20PM 66.0789 -35.8226 89° East  Level FlightAware Approximate
08:21PM 66.0803 -35.4880 89° East  Level FlightAware Approximate
08:22PM 66.0810 -35.1533 90° East  Level FlightAware Approximate
08:23PM 66.0809 -34.8187 90° East  Level FlightAware Approximate
08:24PM 66.0802 -34.4841 90° East  Level FlightAware Approximate
08:25PM 66.0787 -34.1495 90° East  Level FlightAware Approximate
08:26PM 66.0765 -33.8150 91° East  Level FlightAware Approximate
08:27PM 66.0736 -33.4805 91° East  Level FlightAware Approximate
08:28PM 66.0699 -33.1461 91° East  Level FlightAware Approximate
08:29PM 66.0656 -32.8118 92° East  Level FlightAware Approximate
08:30PM 66.0605 -32.4776 92° East  Level FlightAware Approximate
08:31PM 66.0546 -32.1436 92° East  Level FlightAware Approximate
08:32PM 66.0481 -31.8098 93° East  Level FlightAware Approximate
08:33PM 66.0408 -31.4761 93° East  Level FlightAware Approximate
08:34PM 66.0329 -31.1426 93° East  Level FlightAware Approximate
08:35PM 66.0242 -30.8094 94° East  Level FlightAware Approximate
08:36PM 66.0147 -30.4764 94° East  Level FlightAware Approximate
08:37PM 66.0046 -30.1436 94° East  Level FlightAware Approximate
08:38PM 65.9877 -29.8129 99° East  Level FlightAware Approximate
08:39PM 65.9656 -29.4841 99° East  Level FlightAware Approximate
08:40PM 65.9428 -29.1558 100° East  Level FlightAware Approximate
08:41PM 65.9193 -28.8282 100° East  Level FlightAware Approximate
08:42PM 65.8951 -28.5012 100° East  Level FlightAware Approximate
08:43PM 65.8702 -28.1748 100° East  Level FlightAware Approximate
08:44PM 65.8446 -27.8490 101° East  Level FlightAware Approximate
08:45PM 65.8183 -27.5239 101° East  Level FlightAware Approximate
08:46PM 65.7913 -27.1995 101° East  Level FlightAware Approximate
08:47PM 65.7636 -26.8758 102° East  Level FlightAware Approximate
08:48PM 65.7353 -26.5527 102° East  Level FlightAware Approximate
08:48PM 65.6150 -25.2300 102° East 497 572 39,000  Level FlightAware
08:49PM 65.7062 -26.2304 102° East  Level FlightAware Approximate
08:49PM 65.5920 -24.9980 103° East 497 572 39,000  Level FlightAware
08:49PM 65.5720 -24.8030 104° East 497 572 39,000  Level FlightAware
08:50PM 65.5520 -24.5990 103° East 500 575 39,000  Level FlightAware
08:51PM 65.5340 -24.4260 104° East 501 577 39,000  Level FlightAware
08:51PM 65.5140 -24.2360 104° East 499 574 39,000  Level FlightAware
08:52PM 65.4930 -24.0430 105° East 499 574 39,000  Level FlightAware
08:52PM 65.4750 -23.8690 104° East 498 573 39,000  Level FlightAware
08:53PM 65.4530 -23.6660 105° East 498 573 39,000  Level FlightAware
08:54PM 65.4320 -23.4740 105° East 497 572 39,000  Level FlightAware
08:54PM 65.4130 -23.3050 105° East 493 567 39,000  Level FlightAware
08:55PM 65.3910 -23.1150 105° East 492 566 39,000  Level FlightAware
08:55PM 65.3720 -22.9500 105° East 491 565 39,000  Level FlightAware
08:56PM 65.3490 -22.7470 105° East 492 566 39,000  Level FlightAware
08:56PM 65.3290 -22.5710 105° East 493 567 39,000  Level FlightAware
08:57PM 65.3060 -22.3850 106° East 494 568 39,000  Level FlightAware
08:58PM 65.2830 -22.1930 106° East 496 571 39,000  Level FlightAware
08:58PM 65.2620 -22.0150 106° East 495 570 39,000  Level FlightAware
08:59PM 65.2390 -21.8270 106° East 494 568 39,000  Level FlightAware
08:59PM 65.2150 -21.6390 107° East 492 566 39,000  Level FlightAware
09:00PM 65.1930 -21.4650 107° East 491 565 39,000  Level FlightAware
09:01PM 65.1700 -21.2780 106° East 491 565 39,000  Level FlightAware
09:01PM 65.1490 -21.1130 107° East 492 566 39,000  Level FlightAware
09:02PM 65.1230 -20.9170 107° East 493 567 39,000  Level FlightAware
09:02PM 65.1030 -20.7600 107° East 493 567 39,000  Level FlightAware
09:03PM 65.0780 -20.5760 108° East 493 567 39,000  Level FlightAware
09:03PM 65.0510 -20.3760 108° East 493 567 39,000  Level FlightAware
09:04PM 65.0260 -20.1910 108° East 492 566 39,000  Level FlightAware
09:05PM 65.0010 -20.0090 108° East 493 567 39,000  Level FlightAware
09:05PM 64.9770 -19.8440 109° East 494 568 39,000  Level FlightAware
09:06PM 64.9490 -19.6730 111° Southeast 494 568 39,000  Level FlightAware
09:06PM 64.9210 -19.4930 110° East 494 568 39,000  Level FlightAware
09:07PM 64.8930 -19.3190 111° Southeast 493 567 39,000  Level FlightAware
09:08PM 64.8640 -19.1380 111° Southeast 492 566 39,000  Level FlightAware
09:08PM 64.8360 -18.9630 111° Southeast 493 567 39,000  Level FlightAware
09:09PM 64.8070 -18.7840 111° Southeast 491 565 39,000  Level FlightAware
09:09PM 64.7810 -18.6300 112° Southeast 491 565 39,000  Level FlightAware
09:10PM 64.7520 -18.4550 111° Southeast 492 566 39,000  Level FlightAware
09:10PM 64.7220 -18.2760 111° Southeast 492 566 39,000  Level FlightAware
09:11PM 64.6960 -18.1180 111° Southeast 492 566 39,000  Level FlightAware
09:12PM 64.6640 -17.9300 112° Southeast 490 564 39,000  Level FlightAware
09:12PM 64.6370 -17.7740 112° Southeast 489 563 39,000  Level FlightAware
09:13PM 64.6050 -17.5890 112° Southeast 488 562 39,000  Level FlightAware
09:13PM 64.5740 -17.4150 112° Southeast 485 558 39,000  Level FlightAware
09:14PM 64.5450 -17.2480 112° Southeast 484 557 39,000  Level FlightAware
09:15PM 64.5150 -17.0820 113° Southeast 484 557 39,000  Level FlightAware
09:15PM 64.4880 -16.9300 112° Southeast 484 557 39,000  Level FlightAware
09:16PM 64.4550 -16.7520 113° Southeast 484 557 39,000  Level FlightAware
09:16PM 64.4240 -16.5820 113° Southeast 484 557 39,000  Level FlightAware
09:17PM 64.3920 -16.4090 113° Southeast 485 558 39,000  Level FlightAware
09:17PM 64.3600 -16.2370 113° Southeast 485 558 39,000  Level FlightAware
09:18PM 64.3350 -16.1030 113° Southeast 485 558 39,000  Level FlightAware
09:19PM 64.3010 -15.9230 113° Southeast 488 562 39,000  Level FlightAware
09:19PM 64.2690 -15.7550 114° Southeast 488 562 39,000  Level FlightAware
09:20PM 64.2360 -15.5850 114° Southeast 487 560 39,000  Level FlightAware
09:20PM 64.2030 -15.4140 114° Southeast 488 562 39,000  Level FlightAware
09:21PM 64.1740 -15.2620 114° Southeast 489 563 39,000  Level FlightAware
09:21PM 64.1480 -15.1310 114° Southeast 489 563 39,000  Level FlightAware
09:22PM 64.1140 -14.9620 115° Southeast 491 565 39,000  Level FlightAware
09:23PM 64.0820 -14.8000 114° Southeast 491 565 39,000  Level FlightAware
09:23PM 64.0480 -14.6320 115° Southeast 491 565 39,000  Level FlightAware
09:24PM 64.0130 -14.4610 115° Southeast 491 565 39,000  Level FlightAware
09:24PM 63.9820 -14.3100 115° Southeast 491 565 39,000  Level FlightAware
09:25PM 63.9480 -14.1430 115° Southeast 492 566 39,000  Level FlightAware
09:26PM 63.9110 -13.9640 115° Southeast 494 568 39,000  Level FlightAware
09:26PM 63.8810 -13.8240 116° Southeast 494 568 39,000  Level FlightAware
09:27PM 63.8440 -13.6470 115° Southeast 493 567 39,000  Level FlightAware
09:27PM 63.8120 -13.5000 116° Southeast 494 568 39,000  Level FlightAware
09:28PM 63.7760 -13.3310 116° Southeast 493 567 39,000  Level FlightAware
09:28PM 63.7410 -13.1690 116° Southeast 494 568 39,000  Level FlightAware
09:29PM 63.7040 -12.9980 116° Southeast 495 570 39,000  Level FlightAware
09:30PM 63.6710 -12.8460 116° Southeast 494 568 39,000  Level FlightAware
09:30PM 63.6340 -12.6810 117° Southeast 494 568 39,000  Level FlightAware
09:31PM 63.5970 -12.5150 117° Southeast 494 568 39,000  Level FlightAware
09:31PM 63.5620 -12.3590 117° Southeast 495 570 39,000  Level FlightAware
09:32PM 63.5270 -12.2050 117° Southeast 495 570 39,000  Level FlightAware
09:33PM 63.4880 -12.0320 117° Southeast 494 568 39,000  Level FlightAware
09:33PM 63.4560 -11.8940 117° Southeast 494 568 39,000  Level FlightAware
09:34PM 63.4160 -11.7220 117° Southeast 494 568 39,000  Level FlightAware
09:34PM 63.3780 -11.5580 117° Southeast 492 566 39,000  Level FlightAware
09:35PM 63.3430 -11.4100 118° Southeast 493 567 39,000  Level FlightAware
09:35PM 63.3050 -11.2490 118° Southeast 492 566 39,000  Level FlightAware
09:36PM 63.2710 -11.1060 118° Southeast 494 568 39,000  Level FlightAware
09:37PM 63.2320 -10.9440 118° Southeast 494 568 39,000  Level FlightAware
09:37PM 63.1940 -10.7840 118° Southeast 493 567 39,000  Level FlightAware
09:38PM 63.1550 -10.6270 119° Southeast 494 568 39,000  Level FlightAware
09:38PM 63.1200 -10.4810 118° Southeast 496 571 39,000  Level FlightAware
09:39PM 63.0800 -10.3210 119° Southeast 495 570 39,000  Level FlightAware
09:40PM 63.0370 -10.1470 119° Southeast 496 571 39,000  Level FlightAware
09:40PM 63.0000 -9.9830 116° Southeast 497 572 39,000  Level FlightAware
09:41PM 62.9700 -9.8070 110° East 499 574 39,000  Level FlightAware
09:41PM 62.9460 -9.6520 109° East 499 574 39,000  Level FlightAware
09:42PM 62.9030 -9.3740 109° East 498 573 39,000  Level FlightAware
09:43PM 62.8620 -9.1190 109° East 500 575 39,000  Level FlightAware
09:44PM 62.8330 -8.9380 109° East 500 575 39,000  Level FlightAware
09:44PM 62.8050 -8.7670 110° East 502 578 39,000  Level FlightAware
09:45PM 62.7740 -8.5800 110° East 502 578 39,000  Level FlightAware
09:46PM 62.7470 -8.4060 109° East 502 578 39,000  Level FlightAware
09:46PM 62.7140 -8.2200 111° Southeast 502 578 39,000  Level FlightAware
09:47PM 62.6870 -8.0570 110° East 502 578 39,000  Level FlightAware
09:48PM 62.6550 -7.8730 111° Southeast 501 577 39,000  Level FlightAware
09:48PM 62.6300 -7.7290 111° Southeast 500 575 39,000  Level FlightAware
09:49PM 62.5990 -7.5500 111° Southeast 501 577 39,000  Level FlightAware
09:49PM 62.5710 -7.3910 111° Southeast 501 577 39,000  Level FlightAware
09:50PM 62.5400 -7.2150 111° Southeast 501 577 39,000  Level FlightAware
09:50PM 62.5140 -7.0660 111° Southeast 500 575 39,000  Level FlightAware
09:51PM 62.4840 -6.8990 111° Southeast 500 575 39,000  Level FlightAware
09:52PM 62.4530 -6.7320 112° Southeast 500 575 39,000  Level FlightAware
09:52PM 62.4230 -6.5640 111° Southeast 500 575 39,000  Level FlightAware
09:53PM 62.3970 -6.4270 112° Southeast 500 575 39,000  Level FlightAware
09:53PM 62.3640 -6.2500 112° Southeast 498 573 39,000  Level FlightAware
09:54PM 62.3350 -6.0950 112° Southeast 498 573 39,000  Level FlightAware
09:55PM 62.3060 -5.9400 112° Southeast 498 573 39,000  Level FlightAware
09:55PM 62.2750 -5.7750 112° Southeast 498 573 39,000  Level FlightAware
09:56PM 62.2430 -5.6130 113° Southeast 498 573 39,000  Level FlightAware
09:56PM 62.2110 -5.4480 113° Southeast 498 573 39,000  Level FlightAware
09:57PM 62.1830 -5.3020 112° Southeast 498 573 39,000  Level FlightAware
09:57PM 62.1510 -5.1390 113° Southeast 499 574 39,000  Level FlightAware
09:58PM 62.1280 -5.0220 113° Southeast 499 574 39,000  Level FlightAware
09:59PM 62.0930 -4.8490 113° Southeast 501 577 39,000  Level FlightAware
09:59PM 62.0620 -4.6930 113° Southeast 502 578 39,000  Level FlightAware
09:59PM 62.0440 -4.6060 114° Southeast 503 579 39,000  Level FlightAware
10:01PM 61.9800 -4.2910 113° Southeast 499 574 39,000  Level FlightAware
10:01PM 61.9480 -4.1370 114° Southeast 499 574 39,000  Level FlightAware
10:02PM 61.9180 -3.9940 114° Southeast 498 573 39,000  Level FlightAware
10:02PM 61.8860 -3.8420 114° Southeast 500 575 39,000  Level FlightAware
10:03PM 61.8540 -3.6890 114° Southeast 499 574 39,000  Level FlightAware
10:03PM 61.8170 -3.5140 114° Southeast 499 574 39,000  Level FlightAware
10:04PM 61.7840 -3.3590 114° Southeast 497 572 39,000  Level FlightAware
10:05PM 61.7530 -3.2150 114° Southeast 497 572 39,000  Level FlightAware
10:05PM 61.7190 -3.0620 115° Southeast 496 571 39,000  Level FlightAware
10:06PM 61.6850 -2.9080 115° Southeast 495 570 39,000  Level FlightAware
10:06PM 61.6490 -2.7430 115° Southeast 495 570 39,000  Level FlightAware
10:07PM 61.6170 -2.6020 115° Southeast 496 571 39,000  Level FlightAware
10:08PM 61.5840 -2.4530 115° Southeast 497 572 39,000  Level FlightAware
10:08PM 61.5490 -2.2980 115° Southeast 496 571 39,000  Level FlightAware
10:09PM 61.5010 -2.0840 115° Southeast 497 572 39,000  Level FlightAware
10:10PM 61.4640 -1.9260 116° Southeast 497 572 39,000  Level FlightAware
10:10PM 61.4320 -1.7880 116° Southeast 497 572 39,000  Level FlightAware
10:11PM 61.3960 -1.6330 116° Southeast 498 573 39,000  Level FlightAware
10:11PM 61.3640 -1.4940 116° Southeast 498 573 39,000  Level FlightAware
10:12PM 61.3270 -1.3410 117° Southeast 499 574 39,000  Level FlightAware
10:12PM 61.2930 -1.1960 116° Southeast 495 570 39,000  Level FlightAware
10:13PM 61.2590 -1.0520 116° Southeast 492 566 39,000  Level FlightAware
10:14PM 61.2190 -0.8860 117° Southeast 492 566 39,000  Level FlightAware
10:14PM 61.1860 -0.7530 117° Southeast 488 562 39,000  Level FlightAware
10:15PM 61.1510 -0.6080 117° Southeast 492 566 39,000  Level FlightAware
10:15PM 61.1100 -0.4400 117° Southeast 490 564 39,000  Level FlightAware
10:16PM 61.0730 -0.2920 117° Southeast 492 566 39,000  Level FlightAware
10:16PM 61.0440 -0.1760 117° Southeast 493 567 39,000  Level FlightAware
10:17PM 61.0060 -0.0270 118° Southeast 489 563 39,000  Level FlightAware
10:18PM 60.9590 0.1300 122° Southeast 489 563 39,000 60 Level FlightAware
10:18PM 60.9140 0.2740 123° Southeast 494 568 39,100 540 Climbing FlightAware
10:19PM 60.8780 0.3870 123° Southeast 494 568 39,600 960 Climbing FlightAware
10:19PM 60.8300 0.5370 123° Southeast 494 568 40,200 960 Climbing FlightAware
10:20PM 60.7870 0.6740 123° Southeast 489 563 40,800 660 Climbing FlightAware
10:21PM 60.7440 0.8060 124° Southeast 495 570 41,000 180 Climbing FlightAware
10:21PM 60.7060 0.9230 124° Southeast 493 567 41,000  Level FlightAware
10:22PM 60.6560 1.0770 123° Southeast 494 568 41,000  Level FlightAware
10:22PM 60.6120 1.2090 124° Southeast 494 568 41,000  Level FlightAware
10:23PM 60.5670 1.3460 124° Southeast 494 568 41,000  Level FlightAware
10:23PM 60.5210 1.4840 124° Southeast 494 568 41,000  Level FlightAware
10:24PM 60.4760 1.6190 124° Southeast 495 570 41,000  Level FlightAware
10:25PM 60.4270 1.7650 124° Southeast 494 568 41,000  Level FlightAware
10:25PM 60.3850 1.8900 124° Southeast 495 570 41,000  Level FlightAware
10:26PM 60.3390 2.0260 124° Southeast 495 570 41,000  Level FlightAware
10:26PM 60.2920 2.1620 125° Southeast 493 567 41,000  Level FlightAware
10:27PM 60.2450 2.2980 125° Southeast 493 567 41,000  Level FlightAware
10:28PM 60.2040 2.4190 124° Southeast 493 567 41,000  Level FlightAware
10:28PM 60.1630 2.5360 125° Southeast 491 565 41,000  Level FlightAware
10:29PM 60.1130 2.6780 125° Southeast 491 565 41,000  Level FlightAware
10:29PM 60.0670 2.8110 125° Southeast 491 565 41,000  Level FlightAware
10:30PM 60.0200 2.9440 125° Southeast 491 565 41,000  Level FlightAware
10:30PM 59.9770 3.0630 126° Southeast 490 564 41,000  Level FlightAware
10:31PM 59.9300 3.1950 126° Southeast 490 564 41,000  Level FlightAware
10:31PM 59.9214 3.2208 126° Southeast 506 582 41,000  Level FlightAware UK
10:32PM 59.8820 3.3280 126° Southeast 492 566 41,000  Level FlightAware
10:32PM 59.8821 3.3318 126° Southeast 504 580 41,000  Level FlightAware UK
10:32PM 59.8424 3.4414 126° Southeast 508 585 41,000  Level FlightAware UK
10:32PM 59.8350 3.4600 126° Southeast 492 566 41,000  Level FlightAware
10:33PM 59.7948 3.5731 126° Southeast 506 582 41,000  Level FlightAware UK
10:33PM 59.7930 3.5760 126° Southeast 492 566 41,000  Level FlightAware
10:33PM 59.7440 3.7080 126° Southeast 492 566 41,000  Level FlightAware
10:34PM 59.6970 3.8360 126° Southeast 492 566 41,000  Level FlightAware
10:35PM 59.6520 3.9590 126° Southeast 491 565 41,000  Level FlightAware
10:35PM 59.6060 4.0830 126° Southeast 488 562 41,000  Level FlightAware
10:36PM 59.5560 4.2180 126° Southeast 487 560 41,000  Level FlightAware
10:36PM 59.5070 4.3460 126° Southeast 486 559 41,000 -180 Level FlightAware
10:36PM 59.5038 4.3547 126° Southeast 506 582 40,900  Descending FlightAware UK
10:37PM 59.4660 4.4560 126° Southeast 484 557 41,000  Climbing FlightAware
10:37PM 59.4565 4.4815 126° Southeast 504 580 40,900 -180 Descending FlightAware UK
10:38PM 59.4164 4.5874 126° Southeast 504 580 40,900 180 Level FlightAware UK
10:38PM 59.4160 4.5860 126° Southeast 483 556 41,000  Climbing FlightAware
10:38PM 59.3693 4.7135 126° Southeast 504 580 40,900  Descending FlightAware UK
10:38PM 59.3690 4.7120 126° Southeast 485 558 41,000 180 Climbing FlightAware
10:39PM 59.3291 4.8187 126° Southeast 500 575 41,000  Level FlightAware UK
10:39PM 59.3260 4.8240 126° Southeast 485 558 41,000  Level FlightAware
10:39PM 59.2808 4.9442 126° Southeast 502 578 41,000  Level FlightAware UK
10:39PM 59.2780 4.9480 126° Southeast 487 560 41,000  Level FlightAware
10:40PM 59.2290 5.0740 127° Southeast 486 559 41,000  Level FlightAware
10:40PM 59.1820 5.1950 127° Southeast 488 562 41,000  Level FlightAware
10:41PM 59.1300 5.3280 127° Southeast 486 559 41,000  Level FlightAware
10:42PM 59.0860 5.4390 128° Southeast 486 559 41,000  Level FlightAware
10:42PM 59.0370 5.5630 127° Southeast 487 560 41,000  Level FlightAware
10:43PM 58.9890 5.6850 127° Southeast 485 558 41,000  Level FlightAware
10:43PM 58.9400 5.8080 128° Southeast 483 556 41,000  Level FlightAware
10:44PM 58.8970 5.9150 128° Southeast 483 556 41,000  Level FlightAware
10:45PM 58.8480 6.0370 128° Southeast 484 557 41,000  Level FlightAware
10:45PM 58.7960 6.1640 128° Southeast 485 558 41,000  Level FlightAware
10:46PM 58.7460 6.2860 128° Southeast 486 559 41,000  Level FlightAware
10:46PM 58.7030 6.3910 128° Southeast 486 559 41,000  Level FlightAware
10:47PM 58.6520 6.5140 129° Southeast 484 557 41,000  Level FlightAware
10:47PM 58.6020 6.6360 128° Southeast 483 556 41,000  Level FlightAware
10:48PM 58.5580 6.7430 128° Southeast 486 559 41,000  Level FlightAware
10:49PM 58.5090 6.8600 129° Southeast 485 558 41,000  Level FlightAware
10:49PM 58.4560 6.9860 129° Southeast 485 558 41,000  Level FlightAware
10:50PM 58.4110 7.0920 129° Southeast 483 556 41,000  Level FlightAware
10:50PM 58.3600 7.2120 129° Southeast 482 555 41,000  Level FlightAware
10:51PM 58.3090 7.3310 129° Southeast 481 554 41,000  Level FlightAware
10:51PM 58.2650 7.4330 129° Southeast 481 554 41,000  Level FlightAware
10:52PM 58.2140 7.5530 129° Southeast 480 552 41,000  Level FlightAware
10:53PM 58.1630 7.6710 129° Southeast 479 551 41,000  Level FlightAware
10:53PM 58.1130 7.7870 129° Southeast 478 550 41,000  Level FlightAware
10:54PM 58.0680 7.8900 130° Southeast 478 550 41,000  Level FlightAware
10:54PM 58.0170 8.0040 130° Southeast 478 550 41,000  Level FlightAware
10:55PM 57.9670 8.1190 129° Southeast 478 550 41,000  Level FlightAware
10:56PM 57.9220 8.2210 130° Southeast 478 550 41,000  Level FlightAware
10:56PM 57.8710 8.3350 130° Southeast 479 551 41,000  Level FlightAware
10:57PM 57.8200 8.4500 130° Southeast 479 551 41,000  Level FlightAware
10:57PM 57.7680 8.5640 131° Southeast 479 551 41,000  Level FlightAware
10:58PM 57.7190 8.6740 130° Southeast 480 552 41,000  Level FlightAware
10:59PM 57.6710 8.7870 128° Southeast 482 555 41,000  Level FlightAware
10:59PM 57.6250 8.9090 125° Southeast 482 555 41,000  Level FlightAware
11:00PM 57.5810 9.0300 124° Southeast 482 555 41,000  Level FlightAware
11:00PM 57.5380 9.1430 125° Southeast 482 555 41,000  Level FlightAware
11:01PM 57.4970 9.2560 124° Southeast 483 556 41,000  Level FlightAware
11:01PM 57.4480 9.3850 125° Southeast 484 557 41,000  Level FlightAware
11:02PM 57.4020 9.5070 125° Southeast 485 558 41,000  Level FlightAware
11:03PM 57.3580 9.6230 125° Southeast 484 557 41,000  Level FlightAware
11:03PM 57.3180 9.7300 125° Southeast 484 557 41,000  Level FlightAware
11:04PM 57.2720 9.8510 125° Southeast 484 557 41,000  Level FlightAware
11:04PM 57.2250 9.9740 125° Southeast 485 558 41,000  Level FlightAware
11:05PM 57.1780 10.0930 126° Southeast 484 557 41,000  Level FlightAware
11:06PM 57.1310 10.2160 125° Southeast 484 557 41,000  Level FlightAware
11:06PM 57.0900 10.3210 126° Southeast 483 556 41,000  Level FlightAware
11:07PM 57.0430 10.4420 125° Southeast 483 556 41,000  Level FlightAware
11:07PM 56.9960 10.5620 126° Southeast 483 556 41,000  Level FlightAware
11:08PM 56.9510 10.6750 126° Southeast 482 555 41,000  Level FlightAware
11:08PM 56.9100 10.7790 126° Southeast 482 555 41,000  Level FlightAware
11:09PM 56.8620 10.8980 126° Southeast 482 555 41,000  Level FlightAware
11:10PM 56.8130 11.0200 126° Southeast 484 557 41,000  Level FlightAware
11:10PM 56.7700 11.1270 126° Southeast 485 558 41,000  Level FlightAware
11:11PM 56.7220 11.2470 126° Southeast 485 558 41,000  Level FlightAware
11:11PM 56.6750 11.3630 126° Southeast 484 557 41,000  Level FlightAware
11:12PM 56.6290 11.4740 127° Southeast 485 558 41,000  Level FlightAware
11:13PM 56.5780 11.5990 126° Southeast 486 559 41,000  Level FlightAware
11:13PM 56.5340 11.7100 126° Southeast 487 560 41,000  Level FlightAware
11:14PM 56.4890 11.8230 126° Southeast 487 560 41,000  Level FlightAware
11:14PM 56.4480 11.9260 126° Southeast 487 560 41,000  Level FlightAware
11:15PM 56.3970 12.0530 126° Southeast 487 560 41,000  Level FlightAware
11:15PM 56.3490 12.1710 126° Southeast 487 560 41,000  Level FlightAware
11:16PM 56.3040 12.2810 126° Southeast 487 560 41,000  Level FlightAware
11:17PM 56.2560 12.3970 127° Southeast 487 560 41,000  Level FlightAware
11:17PM 56.2120 12.5050 126° Southeast 486 559 41,000  Level FlightAware
11:18PM 56.1620 12.6250 127° Southeast 487 560 41,000  Level FlightAware
11:18PM 56.1140 12.7410 127° Southeast 486 559 41,000  Level FlightAware
11:19PM 56.0710 12.8420 127° Southeast 488 562 41,000  Level FlightAware
11:20PM 56.0210 12.9630 126° Southeast 490 564 41,000  Level FlightAware
11:20PM 55.9740 13.0740 127° Southeast 489 563 41,000  Level FlightAware
11:21PM 55.9240 13.1920 127° Southeast 489 563 41,000  Level FlightAware
11:21PM 55.8810 13.2940 127° Southeast 489 563 41,000  Level FlightAware
11:22PM 55.8300 13.4130 127° Southeast 490 564 41,000  Level FlightAware
11:22PM 55.7800 13.5290 127° Southeast 490 564 41,000  Level FlightAware
11:23PM 55.7370 13.6300 127° Southeast 490 564 41,000  Level FlightAware
11:24PM 55.6850 13.7490 128° Southeast 491 565 41,000  Level FlightAware
11:24PM 55.6380 13.8590 127° Southeast 491 565 41,000  Level FlightAware
11:25PM 55.5890 13.9690 128° Southeast 491 565 41,000  Level FlightAware
11:25PM 55.5410 14.0790 128° Southeast 491 565 41,000  Level FlightAware
11:26PM 55.4930 14.1870 128° Southeast 491 565 41,000  Level FlightAware
11:27PM 55.4430 14.3010 128° Southeast 490 564 41,000  Level FlightAware
11:27PM 55.3930 14.4130 128° Southeast 488 562 41,000  Level FlightAware
11:28PM 55.3470 14.5170 128° Southeast 489 563 41,000  Level FlightAware
11:28PM 55.3000 14.6220 128° Southeast 489 563 41,000  Level FlightAware
11:29PM 55.2460 14.7420 128° Southeast 490 564 41,000  Level FlightAware
11:29PM 55.2010 14.8400 129° Southeast 490 564 41,000  Level FlightAware
11:30PM 55.1490 14.9540 129° Southeast 490 564 41,000  Level FlightAware
11:31PM 55.1010 15.0590 129° Southeast 489 563 41,000  Level FlightAware
11:31PM 55.0480 15.1760 128° Southeast 489 563 41,000  Level FlightAware
11:32PM 55.0030 15.2730 129° Southeast 488 562 41,000  Level FlightAware
11:32PM 54.9540 15.3770 129° Southeast 487 560 41,000  Level FlightAware
11:33PM 54.9150 15.4630 128° Southeast 488 562 41,000  Level FlightAware
11:33PM 54.8590 15.5830 129° Southeast 485 558 41,000  Level FlightAware
11:34PM 54.8110 15.6840 129° Southeast 484 557 41,000  Level FlightAware
11:35PM 54.7630 15.7860 129° Southeast 484 557 41,000  Level FlightAware
11:35PM 54.7120 15.8940 129° Southeast 482 555 41,000  Level FlightAware
11:36PM 54.6620 16.0000 129° Southeast 478 550 41,000  Level FlightAware
11:36PM 54.6150 16.0980 130° Southeast 476 548 41,000  Level FlightAware
11:37PM 54.5680 16.1960 130° Southeast 475 547 41,000  Level FlightAware
11:38PM 54.5160 16.3050 129° Southeast 477 549 41,000  Level FlightAware
11:38PM 54.4650 16.4110 130° Southeast 475 547 41,000  Level FlightAware
11:39PM 54.4220 16.4990 130° Southeast 473 544 41,000  Level FlightAware
11:39PM 54.3720 16.6020 130° Southeast 472 543 41,000  Level FlightAware
11:40PM 54.3220 16.7040 130° Southeast 472 543 41,000  Level FlightAware
11:40PM 54.2760 16.7990 130° Southeast 469 540 41,000  Level FlightAware
11:41PM 54.2220 16.9070 131° Southeast 466 536 41,000  Level FlightAware
11:42PM 54.1780 16.9970 130° Southeast 463 533 41,000  Level FlightAware
11:42PM 54.1290 17.0950 130° Southeast 459 528 41,000  Level FlightAware
11:43PM 54.0790 17.1960 130° Southeast 454 522 41,000  Level FlightAware
11:43PM 54.0310 17.2910 131° Southeast 451 519 41,000  Level FlightAware
11:44PM 53.9880 17.3780 130° Southeast 450 518 41,000  Level FlightAware
11:45PM 53.9410 17.4700 131° Southeast 448 516 41,000  Level FlightAware
11:45PM 53.8910 17.5690 131° Southeast 446 513 41,000  Level FlightAware
11:46PM 53.8420 17.6660 131° Southeast 443 510 41,000  Level FlightAware
11:46PM 53.7950 17.7580 131° Southeast 441 507 41,000  Level FlightAware
11:47PM 53.7520 17.8420 131° Southeast 441 507 41,000  Level FlightAware
11:47PM 53.7060 17.9310 131° Southeast 442 509 41,000  Level FlightAware
11:48PM 53.6540 18.0310 131° Southeast 443 510 41,000 -360 Level FlightAware
11:49PM 53.6170 18.1210 125° Southeast 451 519 40,600 -1,020 Descending FlightAware
11:49PM 53.5780 18.2290 121° Southeast 455 524 39,900 -1,380 Descending FlightAware
11:50PM 53.5380 18.3370 122° Southeast 456 525 39,000 -1,380 Descending FlightAware
11:50PM 53.4970 18.4420 123° Southeast 452 520 38,300 -1,680 Descending FlightAware
11:51PM 53.4590 18.5400 123° Southeast 464 534 37,100 -1,800 Descending FlightAware
11:52PM 53.4150 18.6430 126° Southeast 464 534 36,300 -1,260 Descending FlightAware
11:52PM 53.3690 18.7470 127° Southeast 457 526 35,600 -1,200 Descending FlightAware
11:53PM 53.3250 18.8500 126° Southeast 450 518 34,900 -1,200 Descending FlightAware
11:53PM 53.2870 18.9390 126° Southeast 444 511 34,300 -1,260 Descending FlightAware
11:54PM 53.2450 19.0390 125° Southeast 440 506 33,500 -1,680 Descending FlightAware
11:54PM 53.2020 19.1400 125° Southeast 444 511 32,300 -2,160 Descending FlightAware
11:55PM 53.1630 19.2360 124° Southeast 446 513 31,000 -2,160 Descending FlightAware
11:56PM 53.1170 19.3230 131° Southeast 434 499 29,800 -2,040 Descending FlightAware
11:56PM 53.0580 19.3960 143° Southeast 414 476 28,600 -2,040 Descending FlightAware
11:57PM 53.0090 19.4540 145° Southeast 400 460 27,500 -2,580 Descending FlightAware
11:57PM 52.9540 19.5180 145° Southeast 399 459 25,700 -2,640 Descending FlightAware
11:58PM 52.8990 19.5830 145° Southeast 389 448 24,300 -2,400 Descending FlightAware
11:59PM 52.8510 19.6390 145° Southeast 383 441 22,900 -2,580 Descending FlightAware
11:59PM 52.8010 19.6980 144° Southeast 376 433 21,400 -2,040 Descending FlightAware
12:00AM 52.7490 19.7570 146° Southeast 370 426 20,500 -1,440 Descending FlightAware
12:00AM 52.7010 19.8210 141° Southeast 366 421 19,700 -1,380 Descending FlightAware
12:01AM 52.6690 19.8960 125° Southeast 366 421 18,900 -1,620 Descending FlightAware
12:01AM 52.6400 19.9780 120° Southeast 360 414 17,900 -1,740 Descending FlightAware
12:02AM 52.6110 20.0620 120° Southeast 356 410 16,900 -1,920 Descending FlightAware
12:03AM 52.5840 20.1380 120° Southeast 358 412 15,700 -1,980 Descending FlightAware
12:03AM 52.5520 20.2280 120° Southeast 348 400 14,600 -1,860 Descending FlightAware
12:04AM 52.5240 20.3100 119° Southeast 340 391 13,500 -2,040 Descending FlightAware
12:04AM 52.4960 20.3890 120° Southeast 338 389 12,200 -1,860 Descending FlightAware
12:05AM 52.4710 20.4600 120° Southeast 333 383 11,400 -1,200 Descending FlightAware
12:06AM 52.4420 20.5400 121° Southeast 336 387 10,900 -900 Descending FlightAware
12:06AM 52.4180 20.6060 121° Southeast 341 392 10,400 -840 Descending FlightAware
12:07AM 52.3880 20.6890 121° Southeast 342 394 10,000 -480 Descending FlightAware
12:07AM 52.3750 20.7260 120° Southeast 340 391 10,000  Level FlightAware
12:08AM 52.3470 20.8070 119° Southeast 343 395 10,000  Level FlightAware
12:08AM 52.3210 20.8780 121° Southeast 343 395 10,000  Level FlightAware
12:09AM 52.2920 20.9580 121° Southeast 346 398 10,000 -240 Level FlightAware
12:09AM 52.2790 20.9930 121° Southeast 345 397 9,800 -1,200 Descending FlightAware
12:09AM 52.2630 21.0380 120° Southeast 342 394 9,300 -2,220 Descending FlightAware
12:10AM 52.2490 21.0770 120° Southeast 330 380 8,400 -3,300 Descending FlightAware
12:10AM 52.2300 21.1270 122° Southeast 316 364 7,000 -3,840 Descending FlightAware
12:10AM 52.2150 21.1690 120° Southeast 312 359 5,600 -3,540 Descending FlightAware
12:11AM 52.2020 21.2050 120° Southeast 305 351 4,600 -2,880 Descending FlightAware
12:11AM 52.1890 21.2400 121° Southeast 289 333 3,900 -1,920 Descending FlightAware
12:11AM 52.1770 21.2730 121° Southeast 274 315 3,500 -900 Descending FlightAware
12:12AM 52.1600 21.3200 121° Southeast 246 283 3,200 -480 Descending FlightAware
12:12AM 52.1520 21.3420 121° Southeast 243 280 3,200  Level FlightAware
12:12AM 52.1430 21.3670 120° Southeast 228 262 3,200  Level FlightAware
12:13AM 52.1320 21.3790 146° Southeast 212 244 3,200  Level FlightAware
12:13AM 52.1120 21.3730 190° South 173 199 3,200  Level FlightAware
12:13AM 52.1100 21.3680 237° Southwest 169 194 3,200  Level FlightAware
12:13AM 52.1060 21.3570 239° Southwest 162 186 3,200  Level FlightAware
12:13AM 52.1020 21.3350 254° West 162 186 3,200  Level FlightAware
12:14AM 52.1010 21.3200 264° West 162 186 3,200  Level FlightAware
12:14AM 52.0980 21.2830 262° West 162 186 3,200  Level FlightAware
12:14AM 52.0950 21.2590 259° West 159 183 3,200  Level FlightAware
12:15AM 52.0930 21.2400 260° West 161 185 3,200  Level FlightAware
12:15AM 52.0920 21.2160 266° West 148 170 3,200  Level FlightAware
12:16AM 52.0930 21.1910 274° West 142 163 3,200  Level FlightAware
12:16AM 52.0960 21.1790 292° West 143 165 3,200  Level FlightAware
12:16AM 52.1030 21.1590 300° West 139 160 3,200 -180 Level FlightAware
12:16AM 52.1090 21.1400 297° West 140 161 3,100 -600 Descending FlightAware
12:17AM 52.1150 21.1220 298° West 134 154 2,800 -780 Descending FlightAware
12:17AM 52.1210 21.1040 299° West 129 148 2,600 -900 Descending FlightAware
12:17AM 52.1270 21.0850 297° West 128 147 2,200 -840 Descending FlightAware
12:18AM 52.1340 21.0660 301° West 129 148 2,000 -720 Descending FlightAware
12:18AM 52.1370 21.0550 294° West 130 150 1,800 -960 Descending FlightAware
12:18AM 52.1430 21.0380 300° West 130 150 1,500 -960 Descending FlightAware
12:19AM 52.1500 21.0170 299° West 135 155 1,100 -960 Descending FlightAware
12:19AM 52.1570 20.9990 302° West 136 157 800 -900 Descending FlightAware
12:19AM 52.1620 20.9790 292° West 131 151 500 -900 Descending FlightAware